Latest Coastal Weather Observations for Cerberus

IDV60701

Issued at 4:11 am EST Wednesday 4 May 2016 (issued every 10 minutes, with the page automatically refreshed every 10 minutes)

About coastal observations | Map of coastal stations | Coastal observations for VIC | Marine services | Other Formats
Station Details ID: 086361 Name: CERBERUS Lat: -38.36 Lon: 145.18 Height: 12.69 m
Data from the previous 72 hours. | See also: Recent months at Cerberus
Date/Time
EST
Temp

°C
Wind Pressure Rain
since 9am
mm
Weather Cloud Vis
km
Sea
Height
m
Swell
Dir
 
Speed
knots
Gust
knots
hPa Trend Height
m
Period
s
Dir
04/04:00am 11.7 WNW 8 19 1010.5 - 4.4 - - - - - - -
04/03:30am 11.8 WNW 10 16 1010.0 - 4.4 - - - - - - -
04/03:00am 11.5 WNW 10 14 1009.3 - 4.4 - - - - - - -
04/02:30am 11.8 WNW 11 17 1009.1 - 4.4 - - - - - - -
04/02:00am 11.9 WNW 11 19 1009.1 - 4.4 - - - - - - -
04/01:30am 11.9 WNW 9 19 1009.0 - 4.4 - - - - - - -
04/01:00am 12.1 WNW 9 15 1008.9 - 4.4 - - - - - - -
04/12:30am 12.3 WNW 12 20 1008.6 - 4.4 - - - - - - -
04/12:00am 12.6 WNW 13 19 1008.3 - 4.4 - - - - - - -
 
Date/Time
EST
Temp

°C
Wind Pressure Rain
since 9am
mm
Weather Cloud Vis
km
Sea
Height
m
Swell
Dir
 
Speed
knots
Gust
knots
hPa Trend Height
m
Period
s
Dir
03/11:30pm 13.0 WNW 10 19 1008.0 - 4.4 - - - - - - -
03/11:00pm 13.1 WNW 10 18 1007.4 - 4.4 - - - - - - -
03/10:30pm 13.1 WNW 8 11 1007.2 - 4.4 - - - - - - -
03/10:00pm 13.1 WNW 9 16 1007.2 - 4.4 - - - - - - -
03/09:30pm 13.1 WNW 9 17 1007.0 - 4.4 - - - - - - -
03/09:00pm 13.0 WNW 7 14 1006.5 - 4.4 - - - - - - -
03/08:30pm 13.0 WNW 9 21 1005.9 - 4.4 - - - - - - -
03/08:00pm 13.2 WNW 12 19 1005.5 - 4.4 - - - - - - -
03/07:30pm 13.3 WNW 10 18 1005.4 - 4.4 - - - - - - -
03/07:00pm 13.4 WNW 12 18 1004.9 - 4.4 - - - - - - -
03/06:30pm 13.5 WNW 11 21 1004.4 - 4.4 - - - - - - -
03/06:00pm 13.6 W 12 19 1003.3 - 4.4 - - - - - - -
03/05:30pm 13.7 WNW 16 24 1002.2 - 4.4 - - - - - - -
03/05:10pm 13.9 W 15 27 1001.6 - 4.4 - - - - - - -
03/05:00pm 13.9 W 15 23 1001.3 - 4.4 - - - - - - -
03/04:39pm 14.4 W 16 27 1000.6 - 4.4 - - - - - - -
03/04:30pm 14.5 W 17 25 1000.3 - 4.4 - - - - - - -
03/04:00pm 14.5 W 16 23 999.7 - 4.4 - - - - - - -
03/03:30pm 15.1 WNW 19 34 998.8 - 4.4 - - - - - - -
03/03:09pm 14.9 WNW 18 29 998.4 - 4.0 - - - - - - -
03/03:05pm 15.0 NW 18 29 998.3 - 3.6 - - - - - - -
03/03:00pm 17.1 NNW 16 28 997.4 - 0.2 Rain - - - - - -
03/02:37pm 18.1 NNW 15 26 997.0 - 0.0 - - - - - - -
03/02:30pm 18.1 NNW 16 26 997.2 - 0.0 - - - - - - -
03/02:00pm 18.3 NNW 17 37 996.9 - 0.0 - - - - - - -
03/01:30pm 18.5 NNW 19 31 996.5 - 0.0 - - - - - - -
03/01:00pm 18.4 NNW 17 29 996.9 - 0.0 - - - - - - -
03/12:30pm 18.1 NNW 18 31 997.2 - 0.0 - - - - - - -
03/12:00pm 18.2 NNW 20 37 997.7 - 0.0 - - - - - - -
03/11:30am 18.2 NNW 19 34 998.1 - 0.0 - - - - - - -
03/11:00am 19.0 NNW 17 28 998.4 - 0.0 - - - - - - -
03/10:30am 17.7 NNW 21 35 998.7 - 0.0 - - - - - - -
03/10:00am 17.9 NNW 19 33 998.9 - 0.0 - - - - - - -
03/09:30am 17.4 NNW 21 39 998.9 - 0.0 - - - - - - -
03/09:00am 17.0 NNW 19 33 999.1 - 0.0 - - - - - - -
03/08:30am 16.6 NNW 20 38 999.2 - 0.0 - - - - - - -
03/08:00am 16.3 NNW 18 31 999.8 - 0.0 - - - - - - -
03/07:30am 15.8 N 16 31 1000.1 - 0.0 - - - - - - -
03/07:00am 15.6 N 16 28 1000.1 - 0.0 - - - - - - -
03/06:30am 16.0 N 16 31 1000.0 - 0.0 - - - - - - -
03/06:20am 15.8 N 15 26 1000.4 - 0.0 - - - - - - -
03/06:00am 15.7 N 13 24 1000.8 - 0.0 - - - - - - -
03/05:30am 15.3 N 12 21 1001.4 - 0.0 - - - - - - -
03/05:00am 15.3 N 10 19 1001.8 - 0.0 - - - - - - -
03/04:30am 15.1 N 10 17 1001.7 - 0.0 - - - - - - -
03/04:00am 15.2 N 11 21 1002.0 - 0.0 - - - - - - -
03/03:30am 15.4 N 11 25 1002.5 - 0.0 - - - - - - -
03/03:00am 15.8 N 13 24 1002.8 - 0.0 - - - - - - -
03/02:30am 15.6 N 12 27 1003.5 - 0.0 - - - - - - -
03/02:00am 15.8 N 13 26 1003.4 - 0.0 - - - - - - -
03/01:30am 15.8 N 15 26 1003.7 - 0.0 - - - - - - -
03/01:03am 15.9 N 15 27 1003.4 - 0.0 - - - - - - -
03/01:00am 15.7 N 14 24 1003.6 - 0.0 - - - - - - -
03/12:34am 15.5 N 15 26 1004.0 - 0.0 - - - - - - -
03/12:30am 15.6 N 14 26 1004.0 - 0.0 - - - - - - -
03/12:00am 16.0 N 15 29 1004.6 - 0.0 - - - - - - -
 
Date/Time
EST
Temp

°C
Wind Pressure Rain
since 9am
mm
Weather Cloud Vis
km
Sea
Height
m
Swell
Dir
 
Speed
knots
Gust
knots
hPa Trend Height
m
Period
s
Dir
02/11:34pm 16.2 N 15 25 1004.9 - 0.0 - - - - - - -
02/11:30pm 16.1 N 15 25 1005.0 - 0.0 - - - - - - -
02/11:00pm 16.0 N 13 24 1005.6 - 0.0 - - - - - - -
02/10:40pm 16.1 NNW 15 27 1005.7 - 0.0 - - - - - - -
02/10:30pm 16.0 N 12 26 1005.8 - 0.0 - - - - - - -
02/10:00pm 15.8 N 12 21 1006.2 - 0.0 - - - - - - -
02/09:42pm 15.5 NNW 15 29 1006.4 - 0.0 - - - - - - -
02/09:30pm 15.6 N 13 23 1006.6 - 0.0 - - - - - - -
02/09:14pm 15.6 NNW 15 26 1006.6 - 0.0 - - - - - - -
02/09:00pm 15.3 N 11 22 1006.7 - 0.0 - - - - - - -
02/08:30pm 15.3 N 11 23 1007.1 - 0.0 - - - - - - -
02/08:00pm 15.2 N 11 21 1007.3 - 0.0 - - - - - - -
02/07:30pm 15.3 N 10 23 1007.4 - 0.0 - - - - - - -
02/07:00pm 15.5 N 11 19 1007.3 - 0.0 - - - - - - -
02/06:30pm 15.6 N 10 18 1007.3 - 0.0 - - - - - - -
02/06:00pm 16.0 NNW 12 23 1007.4 - 0.0 - - - - - - -
02/05:30pm 16.5 NNW 13 23 1007.3 - 0.0 - - - - - - -
02/05:00pm 16.7 NNW 14 25 1007.4 - 0.0 - - - - - - -
02/04:30pm 16.8 NNW 12 22 1007.6 - 0.0 - - - - - - -
02/04:00pm 16.3 NNW 11 21 1007.6 - 0.0 - - - - - - -
02/03:30pm 17.2 N 8 15 1007.9 - 0.0 - - - - - - -
02/03:00pm 17.9 NNW 10 17 1008.2 - 0.0 - - - - - - -
02/02:32pm 17.7 NNW 15 25 1007.9 - 0.0 - - - - - - -
02/02:30pm 17.6 NNW 14 25 1007.9 - 0.0 - - - - - - -
02/02:05pm 17.5 NNW 15 25 1008.2 - 0.0 - - - - - - -
02/02:00pm 17.7 NNW 14 23 1008.3 - 0.0 - - - - - - -
02/01:32pm 17.3 NNW 15 26 1008.5 - 0.0 - - - - - - -
02/01:30pm 17.2 NNW 15 26 1008.5 - 0.0 - - - - - - -
02/01:00pm 16.6 NNW 16 24 1008.7 - 0.0 - - - - - - -
02/12:30pm 16.4 NNW 12 20 1009.7 - 0.0 - - - - - - -
02/12:00pm 16.4 NNW 11 20 1010.3 - 0.0 - - - - - - -
02/11:30am 15.9 NNW 11 19 1010.8 - 0.0 - - - - - - -
02/11:00am 15.3 NNW 12 19 1011.2 - 0.0 - - - - - - -
02/10:30am 14.4 NNW 10 17 1011.4 - 0.0 - - - - - - -
02/10:00am 13.5 NNW 9 15 1011.9 - 0.0 - - - - - - -
02/09:30am 13.2 NNW 9 15 1012.1 - 0.0 - - - - - - -
02/09:00am 13.1 NNW 5 12 1012.6 - 1.2 - - - - - - -
02/08:30am 12.5 NNW 5 13 1012.6 - 1.2 - - - - - - -
02/08:00am 10.7 CALM 0 0 1012.7 - 1.2 - - - - - - -
02/07:30am 9.9 N 2 7 1012.5 - 1.2 - - - - - - -
02/07:00am 9.2 N 3 8 1012.4 - 1.2 - - - - - - -
02/06:30am 9.3 N 3 8 1012.5 - 1.2 - - - - - - -
02/06:00am 11.3 NNW 3 9 1012.5 - 1.2 - - - - - - -
02/05:30am 10.8 CALM 0 3 1012.7 - 1.2 - - - - - - -
02/05:00am 10.7 CALM 0 0 1012.7 - 1.2 - - - - - - -
02/04:30am 10.8 NW 2 8 1012.6 - 1.2 - - - - - - -
02/04:00am 11.1 NW 5 13 1012.6 - 1.2 - - - - - - -
02/03:30am 11.3 NW 6 12 1012.8 - 1.2 - - - - - - -
02/03:00am 11.9 NW 8 13 1013.0 - 1.2 - - - - - - -
02/02:30am 11.6 NW 9 16 1013.1 - 1.2 - - - - - - -
02/02:00am 11.8 NW 11 19 1013.2 - 1.2 - - - - - - -
02/01:30am 11.8 NW 10 17 1013.6 - 1.2 - - - - - - -
02/01:00am 11.9 NW 9 15 1014.0 - 1.2 - - - - - - -
02/12:30am 11.5 NW 7 12 1014.3 - 1.2 - - - - - - -
02/12:00am 11.0 NW 4 10 1014.4 - 1.2 - - - - - - -
 
Date/Time
EST
Temp

°C
Wind Pressure Rain
since 9am
mm
Weather Cloud Vis
km
Sea
Height
m
Swell
Dir
 
Speed
knots
Gust
knots
hPa Trend Height
m
Period
s
Dir
01/11:30pm 11.9 NW 9 17 1014.5 - 1.2 - - - - - - -
01/11:00pm 11.8 NW 10 16 1014.6 - 1.2 - - - - - - -
01/10:30pm 11.7 NW 9 15 1014.6 - 1.2 - - - - - - -
01/10:00pm 11.7 NW 7 12 1014.6 - 1.2 - - - - - - -
01/09:30pm 11.9 NW 8 13 1014.5 - 1.2 - - - - - - -
01/09:00pm 12.2 NW 10 17 1014.3 - 1.2 Recent precip. - - - - - -
01/08:30pm 12.2 WNW 10 16 1014.0 - 1.2 - - - - - - -
01/08:00pm 12.1 WNW 8 13 1013.6 - 1.0 - - - - - - -
01/07:30pm 12.0 NW 7 13 1013.4 - 1.0 - - - - - - -
01/07:00pm 12.4 WNW 8 13 1012.9 - 1.0 - - - - - - -
01/06:30pm 12.3 WNW 5 9 1012.8 - 1.0 - - - - - - -
01/06:00pm 12.6 WNW 8 12 1012.4 - 1.0 - - - - - - -
01/05:30pm 12.9 WNW 10 17 1011.8 - 1.0 - - - - - - -
01/05:00pm 12.7 WNW 8 15 1011.3 - 1.0 - - - - - - -
01/04:30pm 13.5 WNW 12 18 1010.9 - 1.0 - - - - - - -
01/04:00pm 12.2 WNW 12 24 1010.5 - 1.0 - - - - - - -
01/03:30pm 12.3 W 10 17 1010.1 - 1.0 - - - - - - -
01/03:00pm 11.4 WNW 9 14 1009.5 - 0.6 Recent precip. - - - - - -
01/02:30pm 13.7 WNW 15 28 1009.0 - 0.4 - - - - - - -
01/02:22pm 13.8 WNW 15 26 1008.7 - 0.4 - - - - - - -
01/02:00pm 13.8 WNW 12 20 1008.3 - 0.4 - - - - - - -
01/01:30pm 12.2 WNW 12 19 1008.1 - 0.4 - - - - - - -
01/01:00pm 11.9 WNW 13 20 1008.3 - 0.4 - - - - - - -
01/12:47pm 12.2 W 17 27 1008.2 - 0.4 - - - - - - -
01/12:30pm 13.0 W 15 23 1008.0 - 0.2 - - - - - - -
01/12:00pm 13.2 W 17 29 1007.5 - 0.2 Recent precip. - - - - - -
01/11:30am 13.2 WNW 23 36 1007.0 - 0.0 - - - - - - -
01/11:00am 13.9 WNW 18 36 1006.5 - 0.0 - - - - - - -
01/10:30am 14.0 WNW 19 30 1006.1 - 0.0 - - - - - - -
01/10:05am 14.3 WNW 17 28 1005.5 - 0.0 - - - - - - -
01/10:00am 14.2 WNW 19 28 1005.4 - 0.0 - - - - - - -
01/09:34am 14.2 NW 17 28 1004.9 - 0.0 - - - - - - -
01/09:30am 14.2 NW 17 27 1004.9 - 0.0 - - - - - - -
01/09:23am 14.0 NW 15 27 1004.8 - 0.0 - - - - - - -
01/09:00am 12.7 WNW 12 23 1004.5 - 20.0 Recent precip. - - - - - -
01/08:30am 12.1 NW 16 30 1004.5 - 19.4 - - - - - - -
01/08:00am 13.9 NW 15 25 1003.5 - 16.8 - - - - - - -
01/07:42am 15.5 NNW 15 29 1002.9 - 15.0 - - - - - - -
01/07:30am 15.5 N 10 18 1002.6 - 15.0 - - - - - - -
01/07:00am 14.9 NNW 7 13 1002.5 - 15.0 - - - - - - -
01/06:30am 14.6 N 8 13 1002.1 - 15.0 - - - - - - -
01/06:00am 14.4 N 8 13 1002.3 - 15.0 - - - - - - -
01/05:30am 14.8 N 4 11 1002.3 - 15.0 - - - - - - -
01/05:00am 15.1 N 6 13 1001.7 - 15.0 - - - - - - -
01/04:30am 14.8 NNW 5 12 1001.6 - 15.0 - - - - - - -

Other Formats:

Comma delimited format used in spreadsheet applications
http://www.bom.gov.au/fwo/IDV60701/IDV60701.94898.axf

JavaScript Object Notation format (JSON) in row-major order
http://www.bom.gov.au/fwo/IDV60701/IDV60701.94898.json